NW7222 KSNA-KMEM
Flight info
| Callsign | NW7222 |
|---|---|
| Flight time | 3h 4m |
| Altitude | 33000 |
| Route | PIGGN3 AVRRY LANCY HIDAT DRK KA30Q KA33U KA33Y NOSEW IRW LITTR HOBRK4 |
| Aircraft | MD82/M-SDFGIRWY/S |
Departure
| Time | 2026-05-05 23:46 |
|---|---|
| Airport | John Wayne Orange County International Airport (KSNA) |
Arrival
| Time | 2026-05-06 02:51 |
|---|---|
| Airport | Memphis International Airport (KMEM) |
| Time | Latitude | Longitude | Altitude | Speed | Heading |
|---|---|---|---|---|---|
| 2026-05-05 22:46 | 33.68189 | -117.86081 | 51 ft | 0 kts | 118° |
| 2026-05-05 23:32 | 33.68197 | -117.86098 | 51 ft | 3 kts | 116° |
| 2026-05-05 23:32 | 33.68209 | -117.86119 | 50 ft | 3 kts | 145° |
| 2026-05-05 23:32 | 33.68228 | -117.86126 | 47 ft | 3 kts | 185° |
| 2026-05-05 23:32 | 33.68248 | -117.86119 | 47 ft | 1 kts | 207° |
| 2026-05-05 23:33 | 33.68249 | -117.86119 | 47 ft | 3 kts | 207° |
| 2026-05-05 23:39 | 33.68247 | -117.86120 | 51 ft | 2 kts | 207° |
| 2026-05-05 23:39 | 33.68227 | -117.86132 | 51 ft | 4 kts | 207° |
| 2026-05-05 23:40 | 33.68203 | -117.86147 | 51 ft | 4 kts | 207° |
| 2026-05-05 23:40 | 33.68164 | -117.86172 | 51 ft | 10 kts | 207° |
| 2026-05-05 23:40 | 33.68087 | -117.86221 | 49 ft | 14 kts | 211° |
| 2026-05-05 23:40 | 33.68067 | -117.86303 | 49 ft | 10 kts | 286° |
| 2026-05-05 23:41 | 33.68091 | -117.86364 | 53 ft | 7 kts | 298° |
| 2026-05-05 23:41 | 33.68109 | -117.86405 | 52 ft | 0 kts | 298° |
| 2026-05-05 23:42 | 33.68122 | -117.86433 | 52 ft | 9 kts | 298° |
| 2026-05-05 23:43 | 33.68145 | -117.86491 | 52 ft | 4 kts | 279° |
| 2026-05-05 23:43 | 33.68134 | -117.86514 | 50 ft | 0 kts | 212° |
| 2026-05-05 23:45 | 33.68083 | -117.86552 | 52 ft | 31 kts | 212° |
| 2026-05-05 23:45 | 33.67699 | -117.86799 | 52 ft | 94 kts | 208° |
| 2026-05-05 23:45 | 33.66960 | -117.87286 | 60 ft | 149 kts | 213° |
| 2026-05-05 23:46 | 33.65986 | -117.87987 | 391 ft | 171 kts | 213° |
| 2026-05-05 23:46 | 33.64972 | -117.88722 | 1324 ft | 172 kts | 216° |
| 2026-05-05 23:46 | 33.63853 | -117.89442 | 1847 ft | 205 kts | 197° |
| 2026-05-05 23:46 | 33.62351 | -117.89520 | 2577 ft | 213 kts | 180° |
| 2026-05-05 23:47 | 33.60928 | -117.89514 | 3636 ft | 207 kts | 185° |
| 2026-05-05 23:47 | 33.59405 | -117.89662 | 3904 ft | 232 kts | 189° |
| 2026-05-05 23:47 | 33.57735 | -117.89782 | 4320 ft | 249 kts | 176° |
| 2026-05-05 23:47 | 33.55990 | -117.89319 | 4777 ft | 265 kts | 158° |
| 2026-05-05 23:48 | 33.54309 | -117.88341 | 5398 ft | 271 kts | 152° |
| 2026-05-05 23:48 | 33.52631 | -117.87256 | 6047 ft | 275 kts | 151° |
| 2026-05-05 23:48 | 33.50986 | -117.86047 | 6663 ft | 280 kts | 136° |
| 2026-05-05 23:48 | 33.49851 | -117.84175 | 7284 ft | 280 kts | 113° |
| 2026-05-05 23:49 | 33.49066 | -117.82026 | 7854 ft | 284 kts | 110° |
| 2026-05-05 23:49 | 33.48294 | -117.79834 | 8535 ft | 285 kts | 111° |
| 2026-05-05 23:49 | 33.47595 | -117.77590 | 9057 ft | 290 kts | 97° |
| 2026-05-05 23:49 | 33.47575 | -117.75209 | 9724 ft | 286 kts | 81° |
| 2026-05-05 23:50 | 33.47815 | -117.72833 | 10309 ft | 289 kts | 79° |
| 2026-05-05 23:50 | 33.48076 | -117.70403 | 10668 ft | 300 kts | 75° |
| 2026-05-05 23:50 | 33.48826 | -117.68030 | 10840 ft | 313 kts | 58° |
| 2026-05-05 23:50 | 33.49971 | -117.65746 | 11035 ft | 327 kts | 56° |
| 2026-05-05 23:51 | 33.51199 | -117.63379 | 11282 ft | 342 kts | 56° |
| 2026-05-05 23:51 | 33.52438 | -117.60940 | 11621 ft | 352 kts | 57° |
| 2026-05-05 23:51 | 33.53707 | -117.58405 | 12099 ft | 357 kts | 56° |
| 2026-05-05 23:51 | 33.54965 | -117.55835 | 12631 ft | 360 kts | 58° |
| 2026-05-05 23:52 | 33.56222 | -117.53219 | 13113 ft | 364 kts | 57° |
| 2026-05-05 23:52 | 33.57479 | -117.50559 | 13568 ft | 369 kts | 59° |
| 2026-05-05 23:52 | 33.58454 | -117.47689 | 13971 ft | 378 kts | 77° |
| 2026-05-05 23:52 | 33.58618 | -117.44541 | 14518 ft | 379 kts | 91° |
| 2026-05-05 23:53 | 33.58471 | -117.41371 | 15009 ft | 382 kts | 91° |
| 2026-05-05 23:53 | 33.58309 | -117.38159 | 15411 ft | 386 kts | 92° |
| 2026-05-05 23:53 | 33.58157 | -117.34947 | 15973 ft | 386 kts | 92° |
| 2026-05-05 23:53 | 33.58009 | -117.31729 | 16519 ft | 387 kts | 91° |
| 2026-05-05 23:54 | 33.57876 | -117.28492 | 16959 ft | 391 kts | 92° |
| 2026-05-05 23:54 | 33.57773 | -117.25233 | 17508 ft | 391 kts | 89° |
| 2026-05-05 23:54 | 33.58024 | -117.21993 | 17947 ft | 392 kts | 77° |
| 2026-05-05 23:54 | 33.58676 | -117.18798 | 18393 ft | 394 kts | 73° |
| 2026-05-05 23:55 | 33.59407 | -117.15621 | 18830 ft | 397 kts | 72° |
| 2026-05-05 23:55 | 33.60144 | -117.12414 | 19224 ft | 400 kts | 72° |
| 2026-05-05 23:55 | 33.60882 | -117.09188 | 19678 ft | 402 kts | 72° |
| 2026-05-05 23:55 | 33.61604 | -117.05978 | 20094 ft | 405 kts | 73° |
| 2026-05-05 23:56 | 33.62325 | -117.02708 | 20549 ft | 407 kts | 72° |
| 2026-05-05 23:56 | 33.62925 | -116.99381 | 20947 ft | 412 kts | 84° |
| 2026-05-05 23:56 | 33.62990 | -116.95936 | 21392 ft | 415 kts | 89° |
| 2026-05-05 23:56 | 33.62874 | -116.92449 | 21740 ft | 420 kts | 92° |
| 2026-05-05 23:57 | 33.62775 | -116.89986 | 22069 ft | 421 kts | 91° |
| 2026-05-05 23:57 | 33.62638 | -116.86631 | 22508 ft | 422 kts | 91° |
| 2026-05-05 23:57 | 33.62497 | -116.83086 | 22810 ft | 428 kts | 90° |
| 2026-05-05 23:58 | 33.62376 | -116.79523 | 23318 ft | 427 kts | 90° |
| 2026-05-05 23:58 | 33.62264 | -116.75961 | 23712 ft | 429 kts | 90° |
| 2026-05-05 23:58 | 33.62162 | -116.72348 | 23899 ft | 436 kts | 89° |
| 2026-05-05 23:58 | 33.62077 | -116.68704 | 24248 ft | 437 kts | 89° |
| 2026-05-05 23:59 | 33.61986 | -116.65037 | 24499 ft | 442 kts | 90° |
| 2026-05-05 23:59 | 33.61892 | -116.61327 | 24708 ft | 447 kts | 91° |
| 2026-05-05 23:59 | 33.61798 | -116.57604 | 25100 ft | 448 kts | 91° |
| 2026-05-05 23:59 | 33.61702 | -116.53871 | 25420 ft | 450 kts | 91° |
| 2026-05-06 00:00 | 33.61600 | -116.50110 | 25745 ft | 451 kts | 91° |
| 2026-05-06 00:00 | 33.61493 | -116.46342 | 25998 ft | 455 kts | 88° |
| 2026-05-06 00:00 | 33.61448 | -116.42525 | 26123 ft | 460 kts | 87° |
| 2026-05-06 00:00 | 33.61410 | -116.38689 | 26438 ft | 461 kts | 88° |
| 2026-05-06 00:01 | 33.61303 | -116.34878 | 26667 ft | 463 kts | 89° |
| 2026-05-06 00:01 | 33.61170 | -116.31012 | 26919 ft | 465 kts | 89° |
| 2026-05-06 00:01 | 33.61031 | -116.27120 | 27169 ft | 467 kts | 89° |
| 2026-05-06 00:01 | 33.60898 | -116.23217 | 27355 ft | 470 kts | 90° |
| 2026-05-06 00:02 | 33.60773 | -116.19292 | 27587 ft | 472 kts | 89° |
| 2026-05-06 00:02 | 33.60656 | -116.15348 | 27787 ft | 476 kts | 89° |
| 2026-05-06 00:02 | 33.60544 | -116.11362 | 27998 ft | 478 kts | 89° |
| 2026-05-06 00:02 | 33.60437 | -116.07356 | 28120 ft | 483 kts | 89° |
| 2026-05-06 00:03 | 33.60678 | -116.03382 | 28220 ft | 488 kts | 74° |
| 2026-05-06 00:03 | 33.61631 | -115.99471 | 28452 ft | 490 kts | 67° |
| 2026-05-06 00:03 | 33.62834 | -115.95634 | 28665 ft | 492 kts | 64° |
| 2026-05-06 00:03 | 33.64117 | -115.91828 | 28921 ft | 493 kts | 64° |
| 2026-05-06 00:04 | 33.65421 | -115.88003 | 29158 ft | 495 kts | 64° |
| 2026-05-06 00:04 | 33.66687 | -115.84178 | 29724 ft | 489 kts | 65° |
| 2026-05-06 00:04 | 33.67904 | -115.80403 | 30271 ft | 482 kts | 65° |
| 2026-05-06 00:04 | 33.69097 | -115.76644 | 30518 ft | 482 kts | 65° |
| 2026-05-06 00:05 | 33.71463 | -115.69069 | 30820 ft | 486 kts | 66° |
| 2026-05-06 00:05 | 33.72646 | -115.65266 | 31030 ft | 486 kts | 66° |
| 2026-05-06 00:05 | 33.73819 | -115.61515 | 31206 ft | 487 kts | 66° |
| 2026-05-06 00:06 | 33.75016 | -115.57698 | 31330 ft | 489 kts | 66° |
| 2026-05-06 00:06 | 33.76257 | -115.53903 | 31513 ft | 489 kts | 64° |
| 2026-05-06 00:06 | 33.77574 | -115.50132 | 31741 ft | 488 kts | 63° |
| 2026-05-06 00:06 | 33.78925 | -115.46389 | 31935 ft | 488 kts | 63° |
| 2026-05-06 00:07 | 33.80288 | -115.42650 | 32086 ft | 489 kts | 63° |
| 2026-05-06 00:07 | 33.81645 | -115.38905 | 32276 ft | 488 kts | 63° |
| 2026-05-06 00:07 | 33.82989 | -115.35151 | 32478 ft | 488 kts | 63° |
| 2026-05-06 00:07 | 33.84046 | -115.32171 | 32629 ft | 488 kts | 64° |
| 2026-05-06 00:08 | 33.85962 | -115.26807 | 32786 ft | 489 kts | 63° |
| 2026-05-06 00:09 | 33.88645 | -115.19290 | 32846 ft | 487 kts | 64° |
| 2026-05-06 00:09 | 33.90227 | -115.14809 | 32858 ft | 486 kts | 64° |
| 2026-05-06 00:10 | 33.91533 | -115.11100 | 32858 ft | 485 kts | 64° |
| 2026-05-06 00:10 | 33.94153 | -115.03622 | 32859 ft | 484 kts | 64° |
| 2026-05-06 00:11 | 33.96762 | -114.96124 | 32854 ft | 489 kts | 64° |
| 2026-05-06 00:11 | 33.99401 | -114.88528 | 32855 ft | 493 kts | 64° |
| 2026-05-06 00:12 | 34.02049 | -114.80919 | 32854 ft | 491 kts | 64° |
| 2026-05-06 00:12 | 34.04683 | -114.73355 | 32850 ft | 488 kts | 64° |
| 2026-05-06 00:13 | 34.07318 | -114.65793 | 32849 ft | 489 kts | 64° |
| 2026-05-06 00:13 | 34.09923 | -114.58268 | 32841 ft | 489 kts | 65° |
| 2026-05-06 00:14 | 34.12523 | -114.50682 | 32837 ft | 489 kts | 64° |
| 2026-05-06 00:14 | 34.15128 | -114.43094 | 32836 ft | 489 kts | 64° |
| 2026-05-06 00:15 | 34.17739 | -114.35511 | 32827 ft | 490 kts | 65° |
| 2026-05-06 00:15 | 34.20352 | -114.27926 | 32831 ft | 494 kts | 65° |
| 2026-05-06 00:16 | 34.22990 | -114.20241 | 32829 ft | 495 kts | 65° |
| 2026-05-06 00:16 | 34.25624 | -114.12575 | 32828 ft | 493 kts | 65° |
| 2026-05-06 00:17 | 34.28068 | -114.04896 | 32806 ft | 492 kts | 70° |
| 2026-05-06 00:17 | 34.30130 | -113.96959 | 32829 ft | 496 kts | 71° |
| 2026-05-06 00:18 | 34.32217 | -113.88976 | 32843 ft | 498 kts | 70° |
| 2026-05-06 00:18 | 34.34346 | -113.81106 | 32821 ft | 486 kts | 69° |
| 2026-05-06 00:19 | 34.36472 | -113.73424 | 32812 ft | 479 kts | 70° |
| 2026-05-06 00:19 | 34.38575 | -113.65711 | 32825 ft | 486 kts | 70° |
| 2026-05-06 00:20 | 34.40687 | -113.57898 | 32823 ft | 494 kts | 70° |
| 2026-05-06 00:20 | 34.42799 | -113.49978 | 32821 ft | 493 kts | 70° |
| 2026-05-06 00:21 | 34.44901 | -113.42094 | 32808 ft | 490 kts | 70° |
| 2026-05-06 00:21 | 34.47007 | -113.34219 | 32823 ft | 493 kts | 70° |
| 2026-05-06 00:22 | 34.49129 | -113.26282 | 32822 ft | 496 kts | 70° |
| 2026-05-06 00:22 | 34.51255 | -113.18320 | 32821 ft | 495 kts | 70° |
| 2026-05-06 00:23 | 34.53369 | -113.10390 | 32803 ft | 493 kts | 71° |
| 2026-05-06 00:23 | 34.55469 | -113.02441 | 32826 ft | 499 kts | 71° |
| 2026-05-06 00:24 | 34.57245 | -112.95748 | 32829 ft | 503 kts | 70° |
| 2026-05-06 00:24 | 34.59777 | -112.86393 | 32830 ft | 501 kts | 70° |
| 2026-05-06 00:25 | 34.61624 | -112.79674 | 32829 ft | 500 kts | 70° |
| 2026-05-06 00:25 | 34.63806 | -112.71704 | 32820 ft | 501 kts | 70° |
| 2026-05-06 00:26 | 34.66000 | -112.63657 | 32823 ft | 503 kts | 70° |
| 2026-05-06 00:26 | 34.68198 | -112.55584 | 32822 ft | 503 kts | 70° |
| 2026-05-06 00:27 | 34.70341 | -112.47498 | 32936 ft | 502 kts | 76° |
| 2026-05-06 00:27 | 34.71535 | -112.39164 | 32945 ft | 500 kts | 83° |
| 2026-05-06 00:28 | 34.72462 | -112.30795 | 32951 ft | 503 kts | 82° |
| 2026-05-06 00:28 | 34.73412 | -112.23160 | 32923 ft | 505 kts | 81° |
| 2026-05-06 00:29 | 34.74538 | -112.14748 | 32873 ft | 503 kts | 81° |
| 2026-05-06 00:29 | 34.75641 | -112.06357 | 32868 ft | 505 kts | 82° |
| 2026-05-06 00:30 | 34.76716 | -111.97872 | 32915 ft | 510 kts | 82° |
| 2026-05-06 00:30 | 34.77768 | -111.89392 | 32940 ft | 509 kts | 82° |
| 2026-05-06 00:31 | 34.78811 | -111.80876 | 32962 ft | 508 kts | 82° |
| 2026-05-06 00:31 | 34.79876 | -111.72327 | 32957 ft | 515 kts | 83° |
| 2026-05-06 00:32 | 34.80939 | -111.63682 | 32942 ft | 518 kts | 83° |
| 2026-05-06 00:32 | 34.82012 | -111.55026 | 32838 ft | 516 kts | 83° |
| 2026-05-06 00:33 | 34.83079 | -111.46421 | 32853 ft | 512 kts | 83° |
| 2026-05-06 00:33 | 34.84110 | -111.37835 | 32855 ft | 513 kts | 83° |
| 2026-05-06 00:34 | 34.85128 | -111.29230 | 32856 ft | 514 kts | 83° |
| 2026-05-06 00:34 | 34.86155 | -111.20616 | 32854 ft | 514 kts | 83° |
| 2026-05-06 00:35 | 34.87193 | -111.11986 | 32830 ft | 516 kts | 84° |
| 2026-05-06 00:35 | 34.88237 | -111.03336 | 32864 ft | 523 kts | 84° |
| 2026-05-06 00:36 | 34.89274 | -110.94624 | 32876 ft | 523 kts | 84° |
| 2026-05-06 00:36 | 34.90276 | -110.85944 | 32873 ft | 522 kts | 85° |
| 2026-05-06 00:37 | 34.91294 | -110.77118 | 32908 ft | 530 kts | 85° |
| 2026-05-06 00:37 | 34.92316 | -110.68150 | 32923 ft | 538 kts | 85° |
| 2026-05-06 00:38 | 34.93361 | -110.59061 | 32802 ft | 542 kts | 85° |
| 2026-05-06 00:38 | 34.94420 | -110.49983 | 32802 ft | 538 kts | 85° |
| 2026-05-06 00:39 | 34.95339 | -110.41028 | 32783 ft | 535 kts | 88° |
| 2026-05-06 00:39 | 34.96161 | -110.31974 | 32790 ft | 539 kts | 86° |
| 2026-05-06 00:40 | 34.97209 | -110.22892 | 32790 ft | 542 kts | 84° |
| 2026-05-06 00:40 | 34.98346 | -110.13804 | 32785 ft | 541 kts | 84° |
| 2026-05-06 00:41 | 34.99452 | -110.04741 | 32778 ft | 540 kts | 85° |
| 2026-05-06 00:41 | 35.00553 | -109.95663 | 32785 ft | 542 kts | 84° |
| 2026-05-06 00:42 | 35.01795 | -109.86571 | 32776 ft | 544 kts | 83° |
| 2026-05-06 00:42 | 35.03108 | -109.77470 | 32762 ft | 544 kts | 83° |
| 2026-05-06 00:43 | 35.04404 | -109.68382 | 32778 ft | 543 kts | 83° |
| 2026-05-06 00:43 | 35.05676 | -109.59290 | 32782 ft | 544 kts | 83° |
| 2026-05-06 00:44 | 35.06945 | -109.50188 | 32780 ft | 544 kts | 83° |
| 2026-05-06 00:44 | 35.08197 | -109.41065 | 32771 ft | 545 kts | 83° |
| 2026-05-06 00:45 | 35.09428 | -109.31923 | 32784 ft | 546 kts | 83° |
| 2026-05-06 00:45 | 35.10661 | -109.22823 | 32788 ft | 547 kts | 83° |
| 2026-05-06 00:46 | 35.11907 | -109.13663 | 32781 ft | 545 kts | 83° |
| 2026-05-06 00:46 | 35.13146 | -109.04527 | 32783 ft | 545 kts | 83° |
| 2026-05-06 00:47 | 35.14381 | -108.95382 | 32796 ft | 546 kts | 83° |
| 2026-05-06 00:47 | 35.15616 | -108.86203 | 32794 ft | 547 kts | 84° |
| 2026-05-06 00:48 | 35.16770 | -108.77004 | 32801 ft | 547 kts | 84° |
| 2026-05-06 00:48 | 35.17965 | -108.67836 | 32819 ft | 547 kts | 83° |
| 2026-05-06 00:49 | 35.19194 | -108.58651 | 32825 ft | 548 kts | 83° |
| 2026-05-06 00:49 | 35.20413 | -108.49450 | 32808 ft | 548 kts | 83° |
| 2026-05-06 00:50 | 35.21584 | -108.40308 | 32785 ft | 548 kts | 84° |
| 2026-05-06 00:50 | 35.22736 | -108.31089 | 32817 ft | 548 kts | 83° |
| 2026-05-06 00:51 | 35.23908 | -108.21878 | 32871 ft | 547 kts | 83° |
| 2026-05-06 00:51 | 35.25082 | -108.12676 | 32912 ft | 547 kts | 84° |
| 2026-05-06 00:52 | 35.26252 | -108.03477 | 32947 ft | 547 kts | 84° |
| 2026-05-06 00:52 | 35.27413 | -107.94260 | 32972 ft | 548 kts | 84° |
| 2026-05-06 00:53 | 35.28543 | -107.85024 | 32962 ft | 548 kts | 84° |
| 2026-05-06 00:53 | 35.29104 | -107.80405 | 32801 ft | 549 kts | 84° |
| 2026-05-06 00:53 | 35.29668 | -107.75788 | 32800 ft | 549 kts | 84° |
| 2026-05-06 00:54 | 35.30801 | -107.66564 | 32795 ft | 547 kts | 84° |
| 2026-05-06 00:54 | 35.31935 | -107.57336 | 32792 ft | 548 kts | 84° |
| 2026-05-06 00:55 | 35.33069 | -107.48109 | 32791 ft | 549 kts | 84° |
| 2026-05-06 00:55 | 35.34178 | -107.38854 | 32763 ft | 549 kts | 84° |
| 2026-05-06 00:56 | 35.35263 | -107.29592 | 32774 ft | 549 kts | 84° |
| 2026-05-06 00:56 | 35.36355 | -107.20348 | 32778 ft | 548 kts | 84° |
| 2026-05-06 00:57 | 35.37444 | -107.11158 | 32776 ft | 549 kts | 84° |
| 2026-05-06 00:57 | 35.38543 | -107.01888 | 32770 ft | 551 kts | 84° |
| 2026-05-06 00:58 | 35.39636 | -106.92592 | 32770 ft | 551 kts | 84° |
| 2026-05-06 00:58 | 35.40693 | -106.83295 | 32770 ft | 549 kts | 84° |
| 2026-05-06 00:59 | 35.41739 | -106.74034 | 32771 ft | 549 kts | 84° |
| 2026-05-06 00:59 | 35.42793 | -106.64768 | 32767 ft | 550 kts | 84° |
| 2026-05-06 01:00 | 35.43860 | -106.55455 | 32757 ft | 552 kts | 84° |
| 2026-05-06 01:00 | 35.44922 | -106.46132 | 32751 ft | 551 kts | 86° |
| 2026-05-06 01:01 | 35.45619 | -106.36818 | 32817 ft | 548 kts | 87° |
| 2026-05-06 01:01 | 35.46562 | -106.27513 | 32836 ft | 552 kts | 83° |
| 2026-05-06 01:02 | 35.47763 | -106.18185 | 32875 ft | 554 kts | 82° |
| 2026-05-06 01:02 | 35.48976 | -106.08823 | 32894 ft | 555 kts | 83° |
| 2026-05-06 01:03 | 35.50068 | -105.99560 | 32858 ft | 551 kts | 88° |
| 2026-05-06 01:03 | 35.50251 | -105.90352 | 32744 ft | 544 kts | 94° |
| 2026-05-06 01:04 | 35.50212 | -105.81053 | 32756 ft | 546 kts | 94° |
| 2026-05-06 01:04 | 35.50308 | -105.71715 | 32747 ft | 548 kts | 92° |
| 2026-05-06 01:05 | 35.50482 | -105.62350 | 32712 ft | 548 kts | 92° |
| 2026-05-06 01:05 | 35.50646 | -105.53023 | 32738 ft | 544 kts | 92° |
| 2026-05-06 01:06 | 35.50785 | -105.43755 | 32781 ft | 541 kts | 93° |
| 2026-05-06 01:06 | 35.50864 | -105.34503 | 32792 ft | 542 kts | 93° |
| 2026-05-06 01:07 | 35.50944 | -105.25242 | 32847 ft | 543 kts | 93° |
| 2026-05-06 01:07 | 35.51044 | -105.15971 | 32869 ft | 543 kts | 93° |
| 2026-05-06 01:08 | 35.51150 | -105.06759 | 32857 ft | 543 kts | 93° |
| 2026-05-06 01:08 | 35.51249 | -104.97486 | 32669 ft | 543 kts | 93° |
| 2026-05-06 01:09 | 35.51318 | -104.88210 | 32678 ft | 545 kts | 94° |
| 2026-05-06 01:09 | 35.51360 | -104.78880 | 32670 ft | 548 kts | 94° |
| 2026-05-06 01:10 | 35.51413 | -104.69512 | 32668 ft | 548 kts | 93° |
| 2026-05-06 01:10 | 35.51463 | -104.61748 | 32682 ft | 547 kts | 93° |
| 2026-05-06 01:11 | 35.51521 | -104.52427 | 32678 ft | 546 kts | 93° |
| 2026-05-06 01:11 | 35.51577 | -104.43098 | 32697 ft | 546 kts | 94° |
| 2026-05-06 01:12 | 35.51589 | -104.33772 | 32707 ft | 547 kts | 94° |
| 2026-05-06 01:12 | 35.51593 | -104.29888 | 32708 ft | 547 kts | 94° |
| 2026-05-06 01:13 | 35.51618 | -104.20600 | 32697 ft | 548 kts | 94° |
| 2026-05-06 01:13 | 35.51628 | -104.16365 | 32709 ft | 547 kts | 94° |
| 2026-05-06 01:14 | 35.51657 | -104.02378 | 32720 ft | 546 kts | 94° |
| 2026-05-06 01:14 | 35.51670 | -103.93055 | 32722 ft | 547 kts | 94° |
| 2026-05-06 01:15 | 35.51642 | -103.83724 | 32724 ft | 547 kts | 94° |
| 2026-05-06 01:15 | 35.51602 | -103.74385 | 32744 ft | 547 kts | 94° |
| 2026-05-06 01:16 | 35.51576 | -103.65058 | 32755 ft | 546 kts | 94° |
| 2026-05-06 01:16 | 35.51560 | -103.55733 | 32768 ft | 546 kts | 94° |
| 2026-05-06 01:17 | 35.51535 | -103.46394 | 32774 ft | 547 kts | 93° |
| 2026-05-06 01:17 | 35.51489 | -103.37013 | 32772 ft | 551 kts | 94° |
| 2026-05-06 01:18 | 35.51418 | -103.27605 | 32771 ft | 551 kts | 94° |
| 2026-05-06 01:18 | 35.51354 | -103.18417 | 32777 ft | 548 kts | 93° |
| 2026-05-06 01:19 | 35.51302 | -103.09131 | 32787 ft | 549 kts | 93° |
| 2026-05-06 01:19 | 35.51237 | -102.99730 | 32809 ft | 552 kts | 93° |
| 2026-05-06 01:20 | 35.51175 | -102.90290 | 32828 ft | 554 kts | 93° |
| 2026-05-06 01:20 | 35.51069 | -102.80849 | 32830 ft | 551 kts | 94° |
| 2026-05-06 01:21 | 35.50951 | -102.71458 | 32839 ft | 549 kts | 93° |
| 2026-05-06 01:21 | 35.50838 | -102.62071 | 32846 ft | 550 kts | 93° |
| 2026-05-06 01:22 | 35.50739 | -102.52713 | 32857 ft | 551 kts | 93° |
| 2026-05-06 01:22 | 35.50641 | -102.43302 | 32866 ft | 552 kts | 93° |
| 2026-05-06 01:23 | 35.50303 | -102.33918 | 32847 ft | 548 kts | 96° |
| 2026-05-06 01:23 | 35.50010 | -102.24567 | 32859 ft | 549 kts | 93° |
| 2026-05-06 01:24 | 35.50009 | -102.15180 | 32856 ft | 551 kts | 92° |
| 2026-05-06 01:24 | 35.50060 | -102.05771 | 32861 ft | 551 kts | 92° |
| 2026-05-06 01:25 | 35.50086 | -101.96349 | 32863 ft | 552 kts | 92° |
| 2026-05-06 01:25 | 35.50199 | -101.86916 | 32872 ft | 553 kts | 90° |
| 2026-05-06 01:26 | 35.50415 | -101.77538 | 32876 ft | 553 kts | 90° |
| 2026-05-06 01:26 | 35.50643 | -101.68114 | 32882 ft | 552 kts | 90° |
| 2026-05-06 01:27 | 35.50847 | -101.58679 | 32899 ft | 551 kts | 90° |
| 2026-05-06 01:27 | 35.51041 | -101.49275 | 32913 ft | 552 kts | 90° |
| 2026-05-06 01:28 | 35.51173 | -101.39842 | 32917 ft | 552 kts | 91° |
| 2026-05-06 01:28 | 35.51286 | -101.30417 | 32920 ft | 553 kts | 91° |
| 2026-05-06 01:29 | 35.51459 | -101.20981 | 32924 ft | 554 kts | 90° |
| 2026-05-06 01:29 | 35.51654 | -101.11582 | 32938 ft | 554 kts | 90° |
| 2026-05-06 01:30 | 35.51839 | -101.02142 | 32947 ft | 554 kts | 90° |
| 2026-05-06 01:30 | 35.51758 | -100.92786 | 32944 ft | 550 kts | 95° |
| 2026-05-06 01:31 | 35.51345 | -100.83478 | 32939 ft | 550 kts | 96° |
| 2026-05-06 01:31 | 35.50951 | -100.74090 | 32922 ft | 551 kts | 95° |
| 2026-05-06 01:32 | 35.50624 | -100.64692 | 32911 ft | 551 kts | 95° |
| 2026-05-06 01:32 | 35.50315 | -100.55284 | 32896 ft | 551 kts | 95° |
| 2026-05-06 01:33 | 35.49996 | -100.45956 | 32901 ft | 551 kts | 96° |
| 2026-05-06 01:33 | 35.49624 | -100.36560 | 32902 ft | 551 kts | 96° |
| 2026-05-06 01:34 | 35.49236 | -100.27166 | 32905 ft | 551 kts | 96° |
| 2026-05-06 01:34 | 35.48862 | -100.17771 | 32884 ft | 551 kts | 96° |
| 2026-05-06 01:35 | 35.48500 | -100.08414 | 32900 ft | 548 kts | 96° |
| 2026-05-06 01:35 | 35.48133 | -99.99089 | 32902 ft | 546 kts | 96° |
| 2026-05-06 01:36 | 35.47743 | -99.89775 | 32902 ft | 547 kts | 96° |
| 2026-05-06 01:36 | 35.47324 | -99.80455 | 32893 ft | 547 kts | 96° |
| 2026-05-06 01:37 | 35.46908 | -99.71128 | 32898 ft | 546 kts | 96° |
| 2026-05-06 01:37 | 35.46506 | -99.61892 | 32903 ft | 545 kts | 96° |
| 2026-05-06 01:38 | 35.46102 | -99.52604 | 32904 ft | 545 kts | 96° |
| 2026-05-06 01:38 | 35.45688 | -99.43308 | 32900 ft | 546 kts | 96° |
| 2026-05-06 01:39 | 35.45242 | -99.33999 | 32923 ft | 547 kts | 97° |
| 2026-05-06 01:39 | 35.44784 | -99.24684 | 32928 ft | 548 kts | 96° |
| 2026-05-06 01:40 | 35.44334 | -99.15370 | 32929 ft | 546 kts | 96° |
| 2026-05-06 01:40 | 35.43887 | -99.06077 | 32904 ft | 545 kts | 96° |
| 2026-05-06 01:41 | 35.43414 | -98.96283 | 32909 ft | 546 kts | 96° |
| 2026-05-06 01:41 | 35.42949 | -98.86979 | 32907 ft | 546 kts | 97° |
| 2026-05-06 01:42 | 35.42447 | -98.77674 | 32935 ft | 547 kts | 96° |
| 2026-05-06 01:42 | 35.42035 | -98.69952 | 32939 ft | 548 kts | 96° |
| 2026-05-06 01:43 | 35.41540 | -98.60605 | 32948 ft | 551 kts | 96° |
| 2026-05-06 01:43 | 35.41060 | -98.51224 | 32938 ft | 551 kts | 96° |
| 2026-05-06 01:44 | 35.40576 | -98.41868 | 32902 ft | 548 kts | 96° |
| 2026-05-06 01:44 | 35.40046 | -98.32551 | 32913 ft | 548 kts | 96° |
| 2026-05-06 01:45 | 35.39495 | -98.23220 | 32929 ft | 550 kts | 96° |
| 2026-05-06 01:45 | 35.38969 | -98.13921 | 32940 ft | 551 kts | 96° |
| 2026-05-06 01:46 | 35.38446 | -98.04550 | 32947 ft | 550 kts | 96° |
| 2026-05-06 01:46 | 35.37917 | -97.95203 | 32935 ft | 549 kts | 96° |
| 2026-05-06 01:47 | 35.37255 | -97.85896 | 32935 ft | 549 kts | 98° |
| 2026-05-06 01:47 | 35.36589 | -97.76555 | 32936 ft | 551 kts | 96° |
| 2026-05-06 01:48 | 35.36133 | -97.67163 | 32910 ft | 553 kts | 94° |
| 2026-05-06 01:48 | 35.35617 | -97.57840 | 32895 ft | 549 kts | 98° |
| 2026-05-06 01:49 | 35.34591 | -97.48547 | 32887 ft | 546 kts | 101° |
| 2026-05-06 01:49 | 35.33548 | -97.39379 | 32906 ft | 547 kts | 99° |
| 2026-05-06 01:50 | 35.32584 | -97.30119 | 32901 ft | 548 kts | 99° |
| 2026-05-06 01:50 | 35.31652 | -97.20835 | 32895 ft | 549 kts | 99° |
| 2026-05-06 01:51 | 35.30705 | -97.11543 | 32921 ft | 549 kts | 99° |
| 2026-05-06 01:51 | 35.29726 | -97.02271 | 32886 ft | 549 kts | 100° |
| 2026-05-06 01:52 | 35.28720 | -96.93075 | 32921 ft | 549 kts | 100° |
| 2026-05-06 01:52 | 35.27711 | -96.83815 | 32927 ft | 550 kts | 99° |
| 2026-05-06 01:53 | 35.26706 | -96.74527 | 32900 ft | 551 kts | 99° |
| 2026-05-06 01:53 | 35.25708 | -96.65213 | 32902 ft | 552 kts | 99° |
| 2026-05-06 01:54 | 35.24703 | -96.55906 | 32890 ft | 552 kts | 99° |
| 2026-05-06 01:54 | 35.23655 | -96.46623 | 32887 ft | 550 kts | 100° |
| 2026-05-06 01:55 | 35.22593 | -96.37348 | 32886 ft | 552 kts | 100° |
| 2026-05-06 01:55 | 35.21544 | -96.28026 | 32881 ft | 554 kts | 99° |
| 2026-05-06 01:56 | 35.20498 | -96.18680 | 32887 ft | 554 kts | 99° |
| 2026-05-06 01:56 | 35.19452 | -96.09360 | 32885 ft | 553 kts | 99° |
| 2026-05-06 01:57 | 35.18386 | -96.00171 | 32885 ft | 554 kts | 100° |
| 2026-05-06 01:57 | 35.17288 | -95.90897 | 32882 ft | 556 kts | 100° |
| 2026-05-06 01:58 | 35.16189 | -95.81525 | 32883 ft | 557 kts | 100° |
| 2026-05-06 01:58 | 35.15098 | -95.72173 | 32873 ft | 555 kts | 100° |
| 2026-05-06 01:59 | 35.14003 | -95.62846 | 32862 ft | 554 kts | 99° |
| 2026-05-06 01:59 | 35.12905 | -95.53523 | 32867 ft | 555 kts | 100° |
| 2026-05-06 02:00 | 35.11769 | -95.44203 | 32826 ft | 555 kts | 100° |
| 2026-05-06 02:00 | 35.10622 | -95.34861 | 32850 ft | 557 kts | 100° |
| 2026-05-06 02:01 | 35.09480 | -95.25497 | 32843 ft | 558 kts | 99° |
| 2026-05-06 02:01 | 35.08355 | -95.16190 | 32831 ft | 557 kts | 99° |
| 2026-05-06 02:02 | 35.07221 | -95.06841 | 32830 ft | 555 kts | 99° |
| 2026-05-06 02:02 | 35.06054 | -94.97529 | 32818 ft | 555 kts | 100° |
| 2026-05-06 02:03 | 35.04865 | -94.88216 | 32813 ft | 554 kts | 100° |
| 2026-05-06 02:03 | 35.03691 | -94.78925 | 32804 ft | 554 kts | 100° |
| 2026-05-06 02:04 | 35.02524 | -94.69623 | 32792 ft | 555 kts | 100° |
| 2026-05-06 02:04 | 35.01355 | -94.60315 | 32818 ft | 555 kts | 100° |
| 2026-05-06 02:05 | 35.00172 | -94.51063 | 32818 ft | 555 kts | 100° |
| 2026-05-06 02:05 | 34.98948 | -94.41764 | 32803 ft | 556 kts | 100° |
| 2026-05-06 02:06 | 34.97729 | -94.32464 | 32776 ft | 556 kts | 100° |
| 2026-05-06 02:06 | 34.96515 | -94.23165 | 32752 ft | 555 kts | 100° |
| 2026-05-06 02:07 | 34.95311 | -94.13879 | 32748 ft | 555 kts | 100° |
| 2026-05-06 02:07 | 34.94097 | -94.04572 | 32736 ft | 556 kts | 100° |
| 2026-05-06 02:08 | 34.92881 | -93.95576 | 32737 ft | 557 kts | 101° |
| 2026-05-06 02:08 | 34.91630 | -93.86282 | 32726 ft | 554 kts | 100° |
| 2026-05-06 02:09 | 34.90386 | -93.77042 | 32728 ft | 553 kts | 100° |
| 2026-05-06 02:09 | 34.89132 | -93.67771 | 32731 ft | 556 kts | 100° |
| 2026-05-06 02:10 | 34.87881 | -93.58470 | 32737 ft | 557 kts | 100° |
| 2026-05-06 02:10 | 34.86604 | -93.49176 | 32728 ft | 555 kts | 101° |
| 2026-05-06 02:11 | 34.85301 | -93.39930 | 32734 ft | 554 kts | 100° |
| 2026-05-06 02:11 | 34.84006 | -93.30681 | 32734 ft | 554 kts | 100° |
| 2026-05-06 02:12 | 34.82718 | -93.21423 | 32733 ft | 555 kts | 100° |
| 2026-05-06 02:12 | 34.81432 | -93.12153 | 32754 ft | 556 kts | 100° |
| 2026-05-06 02:13 | 34.80130 | -93.02873 | 32742 ft | 556 kts | 100° |
| 2026-05-06 02:13 | 34.78796 | -92.93668 | 32754 ft | 555 kts | 101° |
| 2026-05-06 02:14 | 34.77460 | -92.84418 | 32758 ft | 555 kts | 100° |
| 2026-05-06 02:14 | 34.76137 | -92.75182 | 32767 ft | 554 kts | 100° |
| 2026-05-06 02:15 | 34.74812 | -92.65931 | 32760 ft | 555 kts | 100° |
| 2026-05-06 02:15 | 34.73461 | -92.56681 | 32767 ft | 554 kts | 102° |
| 2026-05-06 02:16 | 34.71737 | -92.47565 | 32789 ft | 554 kts | 102° |
| 2026-05-06 02:16 | 34.70367 | -92.38346 | 32782 ft | 554 kts | 98° |
| 2026-05-06 02:17 | 34.69253 | -92.29137 | 32796 ft | 554 kts | 98° |
| 2026-05-06 02:17 | 34.68112 | -92.19833 | 32794 ft | 552 kts | 98° |
| 2026-05-06 02:18 | 34.66885 | -92.10627 | 32797 ft | 552 kts | 99° |
| 2026-05-06 02:18 | 34.65654 | -92.01466 | 32791 ft | 554 kts | 98° |
| 2026-05-06 02:19 | 34.64512 | -91.92205 | 32786 ft | 555 kts | 97° |
| 2026-05-06 02:19 | 34.63394 | -91.82944 | 32794 ft | 553 kts | 97° |
| 2026-05-06 02:20 | 34.61709 | -91.69131 | 32819 ft | 550 kts | 97° |
| 2026-05-06 02:21 | 34.60538 | -91.59947 | 32819 ft | 551 kts | 98° |
| 2026-05-06 02:21 | 34.59342 | -91.50766 | 32815 ft | 552 kts | 97° |
| 2026-05-06 02:22 | 34.58179 | -91.41531 | 32519 ft | 559 kts | 97° |
| 2026-05-06 02:22 | 34.57604 | -91.36845 | 32156 ft | 563 kts | 96° |
| 2026-05-06 02:22 | 34.57023 | -91.32175 | 31969 ft | 557 kts | 97° |
| 2026-05-06 02:23 | 34.55813 | -91.22927 | 31596 ft | 556 kts | 97° |
| 2026-05-06 02:23 | 34.55200 | -91.18308 | 31056 ft | 551 kts | 97° |
| 2026-05-06 02:23 | 34.54599 | -91.13762 | 30526 ft | 541 kts | 97° |
| 2026-05-06 02:23 | 34.54004 | -91.09293 | 30015 ft | 532 kts | 97° |
| 2026-05-06 02:24 | 34.53424 | -91.04889 | 29449 ft | 526 kts | 96° |
| 2026-05-06 02:24 | 34.52851 | -91.00524 | 28866 ft | 521 kts | 96° |
| 2026-05-06 02:24 | 34.52296 | -90.96270 | 28293 ft | 515 kts | 96° |
| 2026-05-06 02:24 | 34.51733 | -90.91946 | 27715 ft | 510 kts | 96° |
| 2026-05-06 02:25 | 34.51189 | -90.87779 | 27171 ft | 505 kts | 96° |
| 2026-05-06 02:25 | 34.50685 | -90.83577 | 26648 ft | 500 kts | 90° |
| 2026-05-06 02:25 | 34.50826 | -90.79418 | 26211 ft | 490 kts | 72° |
| 2026-05-06 02:25 | 34.51830 | -90.75547 | 25806 ft | 475 kts | 54° |
| 2026-05-06 02:26 | 34.53541 | -90.72232 | 25386 ft | 457 kts | 40° |
| 2026-05-06 02:26 | 34.55566 | -90.69296 | 24879 ft | 451 kts | 36° |
| 2026-05-06 02:26 | 34.57649 | -90.66460 | 24377 ft | 448 kts | 36° |
| 2026-05-06 02:26 | 34.59715 | -90.63662 | 23835 ft | 444 kts | 36° |
| 2026-05-06 02:27 | 34.61753 | -90.60856 | 23259 ft | 440 kts | 37° |
| 2026-05-06 02:27 | 34.63668 | -90.58059 | 22610 ft | 438 kts | 39° |
| 2026-05-06 02:27 | 34.65548 | -90.55165 | 21974 ft | 434 kts | 41° |
| 2026-05-06 02:27 | 34.67381 | -90.52267 | 21350 ft | 431 kts | 41° |
| 2026-05-06 02:28 | 34.69194 | -90.49376 | 20747 ft | 428 kts | 42° |
| 2026-05-06 02:28 | 34.70991 | -90.46511 | 20141 ft | 425 kts | 42° |
| 2026-05-06 02:28 | 34.72759 | -90.43708 | 19554 ft | 422 kts | 42° |
| 2026-05-06 02:28 | 34.74564 | -90.40858 | 18994 ft | 419 kts | 42° |
| 2026-05-06 02:29 | 34.76312 | -90.38106 | 18433 ft | 415 kts | 42° |
| 2026-05-06 02:29 | 34.78048 | -90.35379 | 17832 ft | 411 kts | 43° |
| 2026-05-06 02:29 | 34.79788 | -90.32644 | 17181 ft | 406 kts | 43° |
| 2026-05-06 02:29 | 34.81509 | -90.29943 | 16530 ft | 401 kts | 43° |
| 2026-05-06 02:30 | 34.83216 | -90.27261 | 15918 ft | 397 kts | 43° |
| 2026-05-06 02:30 | 34.84898 | -90.24615 | 15304 ft | 393 kts | 43° |
| 2026-05-06 02:30 | 34.86552 | -90.22004 | 14704 ft | 385 kts | 43° |
| 2026-05-06 02:30 | 34.87629 | -90.20301 | 14311 ft | 379 kts | 43° |
| 2026-05-06 02:31 | 34.89727 | -90.16979 | 13535 ft | 368 kts | 44° |
| 2026-05-06 02:31 | 34.91266 | -90.14541 | 12958 ft | 357 kts | 43° |
| 2026-05-06 02:31 | 34.92941 | -90.12445 | 12518 ft | 333 kts | 23° |
| 2026-05-06 02:31 | 34.94277 | -90.11579 | 12241 ft | 313 kts | 6° |
| 2026-05-06 02:32 | 34.96335 | -90.11105 | 11814 ft | 295 kts | 352° |
| 2026-05-06 02:32 | 34.98374 | -90.10962 | 11332 ft | 293 kts | 349° |
| 2026-05-06 02:32 | 35.00401 | -90.10897 | 10875 ft | 290 kts | 348° |
| 2026-05-06 02:32 | 35.02415 | -90.10871 | 10401 ft | 288 kts | 348° |
| 2026-05-06 02:33 | 35.04402 | -90.10866 | 10003 ft | 284 kts | 348° |
| 2026-05-06 02:33 | 35.05708 | -90.10871 | 9744 ft | 285 kts | 348° |
| 2026-05-06 02:34 | 35.12323 | -90.10898 | 8312 ft | 284 kts | 348° |
| 2026-05-06 02:34 | 35.14275 | -90.10930 | 7902 ft | 276 kts | 348° |
| 2026-05-06 02:34 | 35.16154 | -90.10960 | 7465 ft | 265 kts | 347° |
| 2026-05-06 02:34 | 35.17982 | -90.10982 | 7060 ft | 260 kts | 348° |
| 2026-05-06 02:35 | 35.19787 | -90.10978 | 6709 ft | 257 kts | 348° |
| 2026-05-06 02:35 | 35.21566 | -90.11028 | 6317 ft | 255 kts | 347° |
| 2026-05-06 02:35 | 35.23323 | -90.11078 | 5994 ft | 248 kts | 348° |
| 2026-05-06 02:35 | 35.25029 | -90.11114 | 5663 ft | 244 kts | 347° |
| 2026-05-06 02:36 | 35.26731 | -90.11152 | 5286 ft | 243 kts | 348° |
| 2026-05-06 02:36 | 35.28409 | -90.11175 | 4920 ft | 240 kts | 348° |
| 2026-05-06 02:36 | 35.30073 | -90.11229 | 4551 ft | 241 kts | 348° |
| 2026-05-06 02:36 | 35.31759 | -90.11250 | 4239 ft | 242 kts | 348° |
| 2026-05-06 02:37 | 35.33441 | -90.11284 | 3948 ft | 242 kts | 349° |
| 2026-05-06 02:37 | 35.35116 | -90.11350 | 3810 ft | 238 kts | 347° |
| 2026-05-06 02:37 | 35.36782 | -90.11409 | 3866 ft | 240 kts | 347° |
| 2026-05-06 02:37 | 35.38470 | -90.11455 | 3926 ft | 244 kts | 348° |
| 2026-05-06 02:38 | 35.40176 | -90.11497 | 3951 ft | 245 kts | 348° |
| 2026-05-06 02:38 | 35.41869 | -90.11545 | 3944 ft | 240 kts | 347° |
| 2026-05-06 02:38 | 35.43450 | -90.11585 | 3942 ft | 220 kts | 348° |
| 2026-05-06 02:38 | 35.44944 | -90.11576 | 3939 ft | 213 kts | 353° |
| 2026-05-06 02:39 | 35.46368 | -90.10987 | 3896 ft | 223 kts | 31° |
| 2026-05-06 02:39 | 35.47288 | -90.09474 | 3884 ft | 223 kts | 71° |
| 2026-05-06 02:39 | 35.47400 | -90.07600 | 3863 ft | 220 kts | 108° |
| 2026-05-06 02:39 | 35.46719 | -90.06072 | 3855 ft | 195 kts | 148° |
| 2026-05-06 02:40 | 35.45615 | -90.05174 | 3911 ft | 193 kts | 154° |
| 2026-05-06 02:40 | 35.44493 | -90.04238 | 3927 ft | 201 kts | 149° |
| 2026-05-06 02:40 | 35.43413 | -90.03161 | 3943 ft | 202 kts | 143° |
| 2026-05-06 02:40 | 35.42439 | -90.01916 | 3946 ft | 203 kts | 137° |
| 2026-05-06 02:41 | 35.41530 | -90.00581 | 3939 ft | 203 kts | 138° |
| 2026-05-06 02:41 | 35.40413 | -89.99751 | 3877 ft | 178 kts | 180° |
| 2026-05-06 02:41 | 35.39218 | -89.99707 | 4025 ft | 174 kts | 182° |
| 2026-05-06 02:41 | 35.37991 | -89.99575 | 3991 ft | 177 kts | 179° |
| 2026-05-06 02:42 | 35.36768 | -89.99429 | 3963 ft | 175 kts | 181° |
| 2026-05-06 02:42 | 35.35561 | -89.99344 | 3962 ft | 173 kts | 182° |
| 2026-05-06 02:42 | 35.34358 | -89.99312 | 3953 ft | 175 kts | 185° |
| 2026-05-06 02:42 | 35.33124 | -89.99323 | 3718 ft | 174 kts | 184° |
| 2026-05-06 02:43 | 35.31933 | -89.99320 | 3486 ft | 172 kts | 184° |
| 2026-05-06 02:43 | 35.30751 | -89.99299 | 3229 ft | 168 kts | 184° |
| 2026-05-06 02:43 | 35.29596 | -89.99286 | 2989 ft | 164 kts | 183° |
| 2026-05-06 02:43 | 35.28471 | -89.99269 | 2751 ft | 160 kts | 182° |
| 2026-05-06 02:44 | 35.27366 | -89.99249 | 2544 ft | 157 kts | 182° |
| 2026-05-06 02:44 | 35.26274 | -89.99211 | 2372 ft | 157 kts | 182° |
| 2026-05-06 02:44 | 35.25188 | -89.99184 | 2194 ft | 156 kts | 183° |
| 2026-05-06 02:44 | 35.24111 | -89.99166 | 2063 ft | 153 kts | 182° |
| 2026-05-06 02:45 | 35.23048 | -89.99143 | 2020 ft | 154 kts | 180° |
| 2026-05-06 02:45 | 35.21971 | -89.99125 | 2016 ft | 155 kts | 180° |
| 2026-05-06 02:45 | 35.20939 | -89.99096 | 2022 ft | 139 kts | 180° |
| 2026-05-06 02:45 | 35.20035 | -89.99068 | 1906 ft | 119 kts | 180° |
| 2026-05-06 02:46 | 35.19263 | -89.99043 | 1921 ft | 110 kts | 181° |
| 2026-05-06 02:46 | 35.18517 | -89.99031 | 1946 ft | 106 kts | 183° |
| 2026-05-06 02:46 | 35.17776 | -89.99026 | 1942 ft | 108 kts | 182° |
| 2026-05-06 02:46 | 35.17013 | -89.99018 | 1978 ft | 112 kts | 181° |
| 2026-05-06 02:47 | 35.16222 | -89.98994 | 1979 ft | 114 kts | 181° |
| 2026-05-06 02:47 | 35.15434 | -89.98965 | 1989 ft | 112 kts | 182° |
| 2026-05-06 02:47 | 35.14659 | -89.98951 | 1984 ft | 111 kts | 181° |
| 2026-05-06 02:47 | 35.13893 | -89.98937 | 1982 ft | 110 kts | 181° |
| 2026-05-06 02:48 | 35.13116 | -89.98912 | 1928 ft | 116 kts | 182° |
| 2026-05-06 02:48 | 35.12312 | -89.98921 | 1760 ft | 110 kts | 185° |
| 2026-05-06 02:48 | 35.11548 | -89.98899 | 1615 ft | 110 kts | 178° |
| 2026-05-06 02:48 | 35.10776 | -89.98826 | 1411 ft | 116 kts | 177° |
| 2026-05-06 02:49 | 35.09954 | -89.98822 | 1256 ft | 118 kts | 183° |
| 2026-05-06 02:49 | 35.09104 | -89.98856 | 1115 ft | 126 kts | 180° |
| 2026-05-06 02:49 | 35.08214 | -89.98835 | 983 ft | 131 kts | 176° |
| 2026-05-06 02:49 | 35.07299 | -89.98794 | 755 ft | 134 kts | 175° |
| 2026-05-06 02:50 | 35.06386 | -89.98820 | 570 ft | 129 kts | 174° |
| 2026-05-06 02:50 | 35.05442 | -89.98706 | 473 ft | 149 kts | 178° |
| 2026-05-06 02:50 | 35.04356 | -89.98726 | 355 ft | 147 kts | 175° |
| 2026-05-06 02:50 | 35.03459 | -89.98719 | 333 ft | 98 kts | 179° |
| 2026-05-06 02:51 | 35.02991 | -89.98700 | 328 ft | 41 kts | 177° |
| 2026-05-06 02:51 | 35.02834 | -89.98680 | 327 ft | 21 kts | 163° |
| 2026-05-06 02:51 | 35.02722 | -89.98624 | 325 ft | 8 kts | 146° |
| 2026-05-06 02:51 | 35.02714 | -89.98610 | 326 ft | 0 kts | 109° |
| 2026-05-06 02:53 | 35.02712 | -89.98605 | 329 ft | 4 kts | 109° |
| 2026-05-06 02:53 | 35.02694 | -89.98570 | 329 ft | 5 kts | 128° |
| 2026-05-06 02:53 | 35.02671 | -89.98538 | 329 ft | 5 kts | 130° |
| 2026-05-06 02:53 | 35.02664 | -89.98498 | 330 ft | 5 kts | 75° |
| 2026-05-06 02:54 | 35.02715 | -89.98463 | 330 ft | 11 kts | 5° |
| 2026-05-06 02:54 | 35.02794 | -89.98459 | 329 ft | 12 kts | 359° |
| 2026-05-06 02:54 | 35.02884 | -89.98461 | 329 ft | 14 kts | 359° |
| 2026-05-06 02:54 | 35.02984 | -89.98464 | 329 ft | 15 kts | 357° |
| 2026-05-06 02:55 | 35.03093 | -89.98470 | 329 ft | 16 kts | 357° |
| 2026-05-06 02:55 | 35.03197 | -89.98473 | 330 ft | 14 kts | 0° |
| 2026-05-06 02:55 | 35.03297 | -89.98473 | 330 ft | 15 kts | 0° |
| 2026-05-06 02:55 | 35.03407 | -89.98473 | 329 ft | 16 kts | 359° |
| 2026-05-06 02:56 | 35.03525 | -89.98479 | 329 ft | 18 kts | 357° |
| 2026-05-06 02:56 | 35.03652 | -89.98487 | 328 ft | 19 kts | 357° |
| 2026-05-06 02:56 | 35.03784 | -89.98495 | 329 ft | 20 kts | 358° |
| 2026-05-06 02:56 | 35.03862 | -89.98481 | 326 ft | 7 kts | 36° |
| 2026-05-06 02:57 | 35.03883 | -89.98391 | 331 ft | 14 kts | 89° |
| 2026-05-06 02:57 | 35.03881 | -89.98278 | 331 ft | 13 kts | 91° |
| 2026-05-06 02:57 | 35.03883 | -89.98161 | 331 ft | 14 kts | 88° |
| 2026-05-06 02:57 | 35.03886 | -89.98034 | 331 ft | 16 kts | 88° |
| 2026-05-06 02:58 | 35.03889 | -89.97901 | 328 ft | 14 kts | 85° |
| 2026-05-06 02:58 | 35.03957 | -89.97833 | 329 ft | 14 kts | 8° |
| 2026-05-06 02:58 | 35.04058 | -89.97838 | 328 ft | 15 kts | 358° |
| 2026-05-06 02:58 | 35.04167 | -89.97838 | 329 ft | 15 kts | 0° |
| 2026-05-06 02:59 | 35.04261 | -89.97836 | 328 ft | 12 kts | 356° |
| 2026-05-06 02:59 | 35.04293 | -89.97892 | 327 ft | 8 kts | 276° |
| 2026-05-06 02:59 | 35.04294 | -89.97959 | 328 ft | 8 kts | 269° |
| 2026-05-06 02:59 | 35.04292 | -89.98035 | 328 ft | 9 kts | 268° |
| 2026-05-06 03:00 | 35.04291 | -89.98091 | 327 ft | 3 kts | 269° |
| 2026-05-06 03:00 | 35.04291 | -89.98103 | 330 ft | 0 kts | 269° |
| 2026-05-06 03:03 | 35.04283 | -89.98232 | 328 ft | 0 kts | 112° |